createdAt,value
2019-05-16T00:01:25.468Z,52.18
2019-05-16T00:03:55.095Z,52.31
2019-05-16T00:06:28.425Z,52.40
2019-05-16T00:08:58.632Z,52.45
2019-05-16T00:11:29.654Z,52.46
2019-05-16T00:13:59.517Z,52.43
2019-05-16T00:16:31.669Z,52.75
2019-05-16T00:19:01.932Z,52.98
2019-05-16T00:21:31.606Z,53.13
2019-05-16T00:24:01.866Z,53.10
2019-05-16T00:26:32.935Z,53.36
2019-05-16T00:29:03.234Z,53.36
2019-05-16T00:31:38.058Z,53.55
2019-05-16T00:34:12.730Z,53.76
2019-05-16T00:36:43.590Z,54.00
2019-05-16T00:39:13.601Z,54.16
2019-05-16T00:41:44.004Z,54.23
2019-05-16T00:44:13.667Z,54.89
2019-05-16T00:46:43.515Z,54.84
2019-05-16T00:49:13.101Z,55.30
2019-05-16T00:51:42.992Z,55.51
2019-05-16T00:54:13.259Z,55.81
2019-05-16T00:56:43.976Z,56.10
2019-05-16T00:59:14.571Z,56.41
2019-05-16T01:01:44.903Z,56.87
2019-05-16T01:04:14.551Z,57.24
2019-05-16T01:06:45.716Z,57.63
2019-05-16T01:09:15.432Z,57.74
2019-05-16T01:11:45.188Z,57.65
2019-05-16T01:14:15.235Z,57.65
2019-05-16T01:16:45.250Z,57.83
2019-05-16T01:19:15.064Z,58.12
2019-05-16T01:21:48.301Z,58.25
2019-05-16T01:24:18.783Z,58.21
2019-05-16T01:26:49.531Z,58.51
2019-05-16T01:29:19.094Z,58.59
2019-05-16T01:31:48.807Z,58.80
2019-05-16T01:34:18.771Z,58.79
2019-05-16T01:36:48.702Z,58.94
2019-05-16T01:39:18.781Z,59.17
2019-05-16T01:41:49.942Z,59.17
2019-05-16T01:44:19.842Z,59.27
2019-05-16T01:46:49.412Z,59.51
2019-05-16T01:49:19.140Z,59.83
2019-05-16T01:51:48.908Z,60.26
2019-05-16T01:54:18.788Z,61.10
2019-05-16T01:56:48.860Z,61.10
2019-05-16T01:59:18.880Z,60.93
2019-05-16T02:01:48.668Z,61.15
2019-05-16T02:04:18.662Z,61.34
2019-05-16T02:06:54.582Z,61.33
2019-05-16T02:09:20.083Z,61.54
2019-05-16T02:11:49.571Z,61.69
2019-05-16T02:14:19.240Z,61.58
2019-05-16T02:16:49.545Z,61.46
2019-05-16T02:19:19.569Z,61.52
2019-05-16T02:21:50.665Z,61.56
2019-05-16T02:24:20.693Z,61.51
2019-05-16T02:26:52.486Z,61.27
2019-05-16T02:29:21.995Z,61.28
2019-05-16T02:31:51.715Z,61.28
2019-05-16T02:34:22.017Z,61.29
2019-05-16T02:37:09.861Z,61.45
2019-05-16T02:39:23.260Z,61.50
2019-05-16T02:41:54.423Z,61.39
2019-05-16T02:44:24.816Z,61.49
2019-05-16T02:46:55.248Z,61.77
2019-05-16T02:49:24.906Z,61.68
2019-05-16T02:51:57.074Z,61.18
2019-05-16T02:54:31.620Z,61.18
2019-05-16T02:57:01.455Z,61.36
2019-05-16T02:59:31.194Z,61.32
2019-05-16T03:02:02.619Z,61.35
2019-05-16T03:04:32.214Z,61.25
2019-05-16T03:07:03.631Z,61.35
2019-05-16T03:09:34.924Z,61.23
2019-05-16T03:12:04.790Z,61.02
2019-05-16T03:14:35.166Z,61.04
2019-05-16T03:17:06.624Z,61.25
2019-05-16T03:19:41.490Z,61.25
2019-05-16T03:22:11.678Z,61.12
2019-05-16T03:24:42.241Z,61.09
2019-05-16T03:27:13.599Z,60.98
2019-05-16T03:29:43.201Z,60.88
2019-05-16T03:32:14.244Z,60.88
2019-05-16T03:34:44.688Z,60.85
2019-05-16T03:37:15.100Z,60.76
2019-05-16T03:39:46.039Z,60.65
2019-05-16T03:42:15.725Z,60.54
2019-05-16T03:44:45.254Z,60.71
2019-05-16T03:47:17.561Z,60.74
2019-05-16T03:49:51.561Z,60.72
2019-05-16T03:52:21.416Z,60.60
2019-05-16T03:54:51.007Z,60.63
2019-05-16T03:57:21.361Z,60.64
2019-05-16T03:59:52.388Z,60.63
2019-05-16T04:02:22.406Z,60.61
2019-05-16T04:04:52.231Z,60.45
2019-05-16T04:07:23.413Z,60.38
2019-05-16T04:09:53.549Z,60.33
2019-05-16T04:12:23.194Z,60.30
2019-05-16T04:14:53.510Z,60.28
2019-05-16T04:17:23.359Z,60.24
2019-05-16T04:19:53.866Z,60.12
2019-05-16T04:22:24.221Z,60.11
2019-05-16T04:24:54.099Z,59.99
2019-05-16T04:27:23.753Z,59.59
2019-05-16T04:29:55.018Z,59.59
2019-05-16T04:32:26.381Z,59.12
2019-05-16T04:34:56.392Z,59.03
2019-05-16T04:37:26.515Z,58.87
2019-05-16T04:40:01.373Z,58.58
2019-05-16T04:42:31.217Z,58.34
2019-05-16T04:45:01.723Z,58.06
2019-05-16T04:47:34.779Z,57.62
2019-05-16T04:50:05.032Z,57.44
2019-05-16T04:52:35.280Z,56.87
2019-05-16T04:55:07.648Z,56.87
2019-05-16T04:57:42.160Z,57.01
2019-05-16T05:00:11.979Z,56.77
2019-05-16T05:02:42.832Z,56.45
2019-05-16T05:05:14.065Z,55.81
2019-05-16T05:07:45.940Z,55.68
2019-05-16T05:10:16.004Z,55.23
2019-05-16T05:12:46.915Z,54.87
2019-05-16T05:15:17.993Z,54.41
2019-05-16T05:17:50.950Z,54.41
2019-05-16T05:20:21.312Z,54.09
2019-05-16T05:22:51.487Z,53.77
2019-05-16T05:25:24.687Z,53.74
2019-05-16T05:27:56.794Z,53.43
2019-05-16T05:30:27.114Z,53.08
2019-05-16T05:32:56.683Z,52.62
2019-05-16T05:35:27.307Z,52.13
2019-05-16T05:38:01.304Z,52.13
2019-05-16T05:40:31.402Z,51.83
2019-05-16T05:43:01.147Z,51.32
2019-05-16T05:45:32.718Z,51.32
2019-05-16T05:48:02.931Z,51.23
2019-05-16T05:50:33.435Z,50.94
2019-05-16T05:53:04.154Z,50.43
2019-05-16T05:55:36.583Z,49.92
2019-05-16T05:58:06.954Z,49.35
2019-05-16T06:00:40.390Z,49.69
2019-05-16T06:03:10.664Z,49.63
2019-05-16T06:05:41.729Z,49.02
2019-05-16T06:08:11.741Z,48.78
2019-05-16T06:10:43.017Z,48.55
2019-05-16T06:13:12.777Z,48.40
2019-05-16T06:15:42.993Z,47.51
2019-05-16T06:18:12.998Z,47.55
2019-05-16T06:20:42.885Z,47.07
2019-05-16T06:23:13.133Z,46.71
2019-05-16T06:25:44.124Z,46.59
2019-05-16T06:28:14.314Z,45.95
2019-05-16T06:30:44.532Z,46.15
2019-05-16T06:33:16.049Z,45.31
2019-05-16T06:35:46.275Z,45.72
2019-05-16T06:38:16.128Z,45.45
2019-05-16T06:40:49.069Z,45.29
2019-05-16T06:43:20.445Z,45.49
2019-05-16T06:45:51.533Z,44.25
2019-05-16T06:48:21.806Z,44.45
2019-05-16T06:50:52.061Z,43.77
2019-05-16T06:53:22.896Z,43.80
2019-05-16T06:55:52.914Z,43.21
2019-05-16T06:58:22.708Z,42.82
2019-05-16T07:00:52.906Z,43.26
2019-05-16T07:03:22.673Z,43.50
2019-05-16T07:05:52.625Z,42.83
2019-05-16T07:08:22.423Z,41.53
2019-05-16T07:10:52.694Z,41.51
2019-05-16T07:13:22.584Z,41.17
2019-05-16T07:15:52.651Z,41.69
2019-05-16T07:18:22.696Z,41.49
2019-05-16T07:20:53.259Z,41.83
2019-05-16T07:23:22.786Z,41.72
2019-05-16T07:25:52.369Z,41.42
2019-05-16T07:28:23.686Z,40.95
2019-05-16T07:30:53.365Z,41.36
2019-05-16T07:33:23.075Z,41.43
2019-05-16T07:35:53.373Z,41.20
2019-05-16T07:38:23.704Z,40.85
2019-05-16T07:40:53.616Z,40.70
2019-05-16T07:43:23.834Z,40.76
2019-05-16T07:45:54.922Z,38.77
2019-05-16T07:48:25.108Z,36.65
2019-05-16T07:50:55.129Z,35.46
2019-05-16T07:53:24.655Z,34.89
2019-05-16T07:55:55.132Z,34.64
2019-05-16T07:58:26.416Z,34.38
2019-05-16T08:01:04.573Z,34.19
2019-05-16T08:03:32.158Z,32.72
2019-05-16T08:06:02.363Z,33.01
2019-05-16T08:08:31.921Z,32.26
2019-05-16T08:11:03.084Z,32.80
2019-05-16T08:13:32.760Z,33.63
2019-05-16T08:16:03.534Z,34.42
2019-05-16T08:18:33.281Z,34.58
2019-05-16T08:21:02.986Z,34.34
2019-05-16T08:23:33.111Z,34.47
2019-05-16T08:26:04.651Z,33.92
2019-05-16T08:28:34.480Z,34.17
2019-05-16T08:31:04.346Z,34.03
2019-05-16T08:33:35.526Z,33.99
2019-05-16T08:36:08.246Z,34.06
2019-05-16T08:38:37.840Z,33.82
2019-05-16T08:41:12.827Z,34.01
2019-05-16T08:43:41.467Z,33.92
2019-05-16T08:46:12.392Z,33.96
2019-05-16T08:48:42.515Z,33.57
2019-05-16T08:51:14.746Z,33.49
2019-05-16T08:53:45.337Z,33.66
2019-05-16T08:56:17.937Z,33.43
2019-05-16T08:58:53.395Z,33.41
2019-05-16T09:01:21.721Z,33.38
2019-05-16T09:03:52.407Z,33.53
2019-05-16T09:06:23.089Z,33.47
2019-05-16T09:08:58.300Z,34.12
2019-05-16T09:11:35.595Z,33.06
2019-05-16T09:13:58.770Z,32.95
2019-05-16T09:16:28.310Z,33.13
2019-05-16T09:18:58.290Z,33.14
2019-05-16T09:21:29.103Z,33.61
2019-05-16T09:23:59.214Z,32.90
2019-05-16T09:26:31.857Z,32.69
2019-05-16T09:29:01.592Z,32.94
2019-05-16T09:31:33.229Z,32.43
2019-05-16T09:34:03.699Z,32.92
2019-05-16T09:36:33.409Z,32.57
2019-05-16T09:39:03.483Z,32.54
2019-05-16T09:41:49.751Z,32.66
2019-05-16T09:44:08.446Z,32.42
2019-05-16T09:46:38.102Z,32.29
2019-05-16T09:49:16.956Z,32.42
2019-05-16T09:51:41.876Z,32.71
2019-05-16T09:54:13.407Z,32.68
2019-05-16T09:56:43.234Z,32.41
2019-05-16T09:59:17.050Z,32.30
2019-05-16T10:01:48.052Z,32.50
2019-05-16T10:04:19.788Z,32.54
2019-05-16T10:06:51.158Z,32.04
2019-05-16T10:09:21.985Z,32.17
2019-05-16T10:12:06.946Z,32.16
2019-05-16T10:14:23.929Z,31.84
2019-05-16T10:16:54.662Z,31.94
2019-05-16T10:19:27.495Z,31.93
2019-05-16T10:22:00.048Z,32.13
2019-05-16T10:24:28.639Z,32.05
2019-05-16T10:26:59.028Z,32.21
2019-05-16T10:29:29.039Z,32.54
2019-05-16T10:31:59.061Z,32.33
2019-05-16T10:34:28.848Z,32.43
2019-05-16T10:36:58.809Z,32.54
2019-05-16T10:39:30.364Z,32.06
2019-05-16T10:42:23.156Z,32.38
2019-05-16T10:44:41.141Z,32.35
2019-05-16T10:47:11.852Z,32.21
2019-05-16T10:49:43.965Z,32.37
2019-05-16T10:52:16.613Z,32.22
2019-05-16T10:54:55.304Z,32.57
2019-05-16T10:57:18.681Z,31.51
2019-05-16T11:00:05.513Z,31.40
2019-05-16T11:02:22.806Z,31.78
2019-05-16T11:05:00.484Z,31.79
2019-05-16T11:07:29.530Z,31.95
2019-05-16T11:10:03.011Z,32.22
2019-05-16T11:12:46.232Z,32.05
2019-05-16T11:15:02.062Z,32.08
2019-05-16T11:17:32.787Z,32.28
2019-05-16T11:20:04.081Z,31.79
2019-05-16T11:22:37.953Z,32.08
2019-05-16T11:25:21.212Z,31.31
2019-05-16T11:27:46.711Z,31.33
2019-05-16T11:30:18.013Z,31.26
2019-05-16T11:32:48.837Z,30.95
2019-05-16T11:35:23.962Z,31.16
2019-05-16T11:37:57.072Z,30.88
2019-05-16T11:40:29.723Z,31.11
2019-05-16T11:43:09.291Z,30.69
2019-05-16T11:45:30.378Z,31.16
2019-05-16T11:48:01.250Z,31.16
2019-05-16T11:50:31.608Z,30.90
2019-05-16T11:53:07.144Z,30.20
2019-05-16T11:55:50.372Z,30.19
2019-05-16T11:58:09.483Z,30.55
2019-05-16T12:00:39.564Z,30.52
2019-05-16T12:03:11.752Z,30.45
2019-05-16T12:05:47.655Z,30.41
2019-05-16T12:08:17.512Z,30.67
2019-05-16T12:10:47.447Z,30.08
2019-05-16T12:13:27.549Z,29.47
2019-05-16T12:15:51.680Z,30.05
2019-05-16T12:18:21.745Z,30.18
2019-05-16T12:20:53.983Z,30.04
2019-05-16T12:23:23.860Z,30.14
2019-05-16T12:25:56.517Z,30.47
2019-05-16T12:28:27.204Z,30.26
2019-05-16T12:31:00.862Z,29.79
2019-05-16T12:33:30.578Z,30.28
2019-05-16T12:36:00.351Z,29.39
2019-05-16T12:38:29.932Z,29.35
2019-05-16T12:41:00.051Z,29.13
2019-05-16T12:43:44.867Z,29.21
2019-05-16T12:46:01.707Z,28.95
2019-05-16T12:48:32.266Z,28.82
2019-05-16T12:51:02.674Z,28.45
2019-05-16T12:53:32.498Z,27.93
2019-05-16T12:56:02.588Z,28.38
2019-05-16T12:58:42.143Z,27.96
2019-05-16T13:01:07.443Z,28.35
2019-05-16T13:03:38.070Z,28.22
2019-05-16T13:06:08.073Z,28.32
2019-05-16T13:08:40.054Z,27.88
2019-05-16T13:11:12.033Z,27.84
2019-05-16T13:13:58.529Z,28.02
2019-05-16T13:16:16.571Z,27.66
2019-05-16T13:18:47.936Z,27.71
2019-05-16T13:21:22.935Z,27.69
2019-05-16T13:23:52.467Z,27.54
2019-05-16T13:26:22.373Z,27.32
2019-05-16T13:28:57.918Z,27.69
2019-05-16T13:31:28.649Z,27.12
2019-05-16T13:34:00.454Z,27.43
2019-05-16T13:36:30.380Z,27.81
2019-05-16T13:39:00.511Z,28.16
2019-05-16T13:41:34.034Z,28.08
2019-05-16T13:44:14.342Z,28.18
2019-05-16T13:46:37.169Z,28.13
2019-05-16T13:49:07.432Z,28.16
2019-05-16T13:51:37.552Z,28.23
2019-05-16T13:54:07.560Z,28.19
2019-05-16T13:56:37.880Z,28.39
2019-05-16T13:59:13.041Z,28.34
2019-05-16T14:01:44.227Z,27.93
2019-05-16T14:04:17.337Z,28.07
2019-05-16T14:06:47.704Z,27.89
2019-05-16T14:09:17.494Z,28.04
2019-05-16T14:11:47.218Z,28.15
2019-05-16T14:14:33.154Z,28.32
2019-05-16T14:16:48.874Z,28.47
2019-05-16T14:19:19.382Z,28.10
2019-05-16T14:21:49.952Z,27.89
2019-05-16T14:24:20.199Z,27.70
2019-05-16T14:26:50.002Z,28.00
2019-05-16T14:29:19.935Z,27.69
2019-05-16T14:31:50.086Z,27.72
2019-05-16T14:34:20.227Z,28.22
2019-05-16T14:36:50.558Z,28.44
2019-05-16T14:39:21.723Z,28.52
2019-05-16T14:41:51.668Z,28.10
2019-05-16T14:44:22.417Z,28.32
2019-05-16T14:46:53.894Z,27.46
2019-05-16T14:49:23.902Z,27.62
2019-05-16T14:51:53.580Z,28.14
2019-05-16T14:54:26.807Z,27.44
2019-05-16T14:57:01.012Z,27.59
2019-05-16T14:59:30.784Z,27.61
2019-05-16T15:02:00.754Z,27.63
2019-05-16T15:04:30.347Z,27.27
2019-05-16T15:07:01.202Z,27.60
2019-05-16T15:09:31.478Z,27.56
2019-05-16T15:12:01.440Z,27.62
2019-05-16T15:14:31.769Z,27.71
2019-05-16T15:17:01.328Z,27.48
2019-05-16T15:19:30.872Z,27.42
2019-05-16T15:22:03.000Z,27.75
2019-05-16T15:24:32.635Z,27.80
2019-05-16T15:27:02.656Z,27.66
2019-05-16T15:29:32.481Z,28.09
2019-05-16T15:32:02.876Z,27.75
2019-05-16T15:34:37.795Z,27.98
2019-05-16T15:37:07.818Z,27.53
2019-05-16T15:39:40.433Z,27.66
2019-05-16T15:42:10.784Z,27.48
2019-05-16T15:44:42.647Z,27.52
2019-05-16T15:47:12.984Z,27.12
2019-05-16T15:49:42.853Z,27.34
2019-05-16T15:52:12.469Z,27.24
2019-05-16T15:54:46.805Z,27.27
2019-05-16T15:57:17.634Z,27.62
2019-05-16T15:59:49.071Z,27.81
2019-05-16T16:02:19.256Z,27.96
2019-05-16T16:04:49.138Z,28.05
2019-05-16T16:07:19.335Z,28.13
2019-05-16T16:09:49.874Z,28.01
2019-05-16T16:12:20.097Z,27.98
2019-05-16T16:14:50.037Z,28.02
2019-05-16T16:17:19.710Z,28.12
2019-05-16T16:19:49.613Z,27.95
2019-05-16T16:22:19.497Z,27.94
2019-05-16T16:24:51.190Z,27.94
2019-05-16T16:27:20.965Z,27.87
2019-05-16T16:29:51.794Z,27.89
2019-05-16T16:32:21.828Z,27.83
2019-05-16T16:34:52.681Z,27.96
2019-05-16T16:37:22.504Z,28.06
2019-05-16T16:39:54.436Z,28.15
2019-05-16T16:42:23.939Z,28.19
2019-05-16T16:44:53.741Z,28.29
2019-05-16T16:47:26.768Z,28.44
2019-05-16T16:49:59.101Z,28.30
2019-05-16T16:52:28.050Z,28.40
2019-05-16T16:54:57.673Z,28.71
2019-05-16T16:57:28.617Z,28.59
2019-05-16T17:00:01.125Z,28.70
2019-05-16T17:02:30.706Z,28.63
2019-05-16T17:05:03.339Z,28.85
2019-05-16T17:07:33.330Z,28.92
2019-05-16T17:10:06.833Z,28.97
2019-05-16T17:12:41.097Z,29.00
2019-05-16T17:15:11.634Z,28.84
2019-05-16T17:17:41.155Z,29.10
2019-05-16T17:20:16.125Z,29.02
2019-05-16T17:22:46.717Z,29.01
2019-05-16T17:25:16.684Z,28.94
2019-05-16T17:27:46.934Z,28.93
2019-05-16T17:30:18.416Z,28.90
2019-05-16T17:32:48.564Z,28.97
2019-05-16T17:35:27.513Z,29.06
2019-05-16T17:37:57.410Z,29.12
2019-05-16T17:40:27.522Z,29.24
2019-05-16T17:42:57.846Z,29.13
2019-05-16T17:45:28.060Z,29.37
2019-05-16T17:47:57.542Z,29.20
2019-05-16T17:50:30.310Z,29.36
2019-05-16T17:53:01.111Z,29.43
2019-05-16T17:55:30.707Z,29.35
2019-05-16T17:58:06.369Z,29.43
2019-05-16T18:00:35.304Z,29.67
2019-05-16T18:03:06.633Z,29.40
2019-05-16T18:05:47.662Z,29.48
2019-05-16T18:08:17.880Z,29.76
2019-05-16T18:10:48.388Z,29.90
2019-05-16T18:13:19.821Z,30.05
2019-05-16T18:15:49.784Z,29.87
2019-05-16T18:18:20.642Z,29.81
2019-05-16T18:20:57.939Z,30.05
2019-05-16T18:23:22.893Z,30.03
2019-05-16T18:25:58.739Z,30.25
2019-05-16T18:28:29.209Z,30.37
2019-05-16T18:30:59.555Z,30.47
2019-05-16T18:33:30.695Z,30.24
2019-05-16T18:36:01.031Z,30.34
2019-05-16T18:38:31.675Z,30.49
2019-05-16T18:41:02.686Z,30.66
2019-05-16T18:43:32.651Z,30.66
2019-05-16T18:46:07.378Z,30.78
2019-05-16T18:48:38.537Z,30.77
2019-05-16T18:51:09.390Z,30.80
2019-05-16T18:53:40.471Z,30.80
2019-05-16T18:56:16.846Z,30.97
2019-05-16T18:58:57.276Z,31.06
2019-05-16T19:02:13.586Z,31.15
2019-05-16T19:04:53.863Z,31.26
2019-05-16T19:07:38.507Z,31.40
2019-05-16T19:10:13.041Z,31.48
2019-05-16T19:12:48.654Z,31.57
2019-05-16T19:15:21.388Z,31.60
2019-05-16T19:18:16.924Z,31.68
2019-05-16T19:21:07.551Z,31.74
2019-05-16T19:23:43.454Z,31.77
2019-05-16T19:26:23.581Z,31.83
2019-05-16T19:29:01.796Z,31.91
2019-05-16T19:32:20.728Z,31.94
2019-05-16T19:35:41.171Z,31.85
2019-05-16T19:38:18.551Z,32.00
2019-05-16T19:41:00.875Z,32.03
2019-05-16T19:43:31.455Z,32.16
2019-05-16T19:46:02.100Z,32.13
2019-05-16T19:48:34.060Z,32.18
2019-05-16T19:51:07.432Z,32.10
2019-05-16T19:53:43.806Z,32.21
2019-05-16T19:56:13.756Z,32.14
2019-05-16T19:58:46.654Z,31.95
2019-05-16T20:01:17.069Z,31.91
2019-05-16T20:03:47.461Z,31.91
2019-05-16T20:06:17.638Z,31.83
2019-05-16T20:08:49.070Z,31.80
2019-05-16T20:11:27.490Z,31.74
2019-05-16T20:14:00.909Z,31.76
2019-05-16T20:16:33.066Z,31.71
2019-05-16T20:19:06.658Z,31.58
2019-05-16T20:21:40.568Z,31.57
2019-05-16T20:24:12.163Z,31.57
2019-05-16T20:26:46.300Z,31.35
2019-05-16T20:29:18.239Z,31.28
2019-05-16T20:31:48.455Z,31.23
2019-05-16T20:34:23.921Z,31.19
2019-05-16T20:36:57.190Z,30.97
2019-05-16T20:39:27.679Z,31.07
2019-05-16T20:41:59.685Z,30.99
2019-05-16T20:44:30.337Z,31.02
2019-05-16T20:47:00.704Z,31.08
2019-05-16T20:49:30.451Z,31.00
2019-05-16T20:52:00.912Z,30.89
2019-05-16T20:54:31.498Z,31.00
2019-05-16T20:57:02.426Z,30.93
2019-05-16T20:59:32.281Z,30.92
2019-05-16T21:02:02.013Z,30.81
2019-05-16T21:04:32.738Z,30.81
2019-05-16T21:07:23.959Z,30.85
2019-05-16T21:09:57.007Z,30.86
2019-05-16T21:13:00.295Z,30.75
2019-05-16T21:15:30.277Z,30.77
2019-05-16T21:18:00.770Z,30.28
2019-05-16T21:20:30.982Z,30.71
2019-05-16T21:23:02.659Z,30.67
2019-05-16T21:25:32.412Z,30.65
2019-05-16T21:28:07.932Z,30.71
2019-05-16T21:30:38.196Z,30.75
2019-05-16T21:33:08.272Z,30.81
2019-05-16T21:35:42.265Z,30.96
2019-05-16T21:38:16.504Z,30.86
2019-05-16T21:40:49.513Z,31.00
2019-05-16T21:43:19.902Z,31.05
2019-05-16T21:45:50.909Z,31.08
2019-05-16T21:48:20.927Z,31.15
2019-05-16T21:50:51.555Z,31.26
2019-05-16T21:53:21.316Z,31.26
2019-05-16T21:55:51.685Z,31.30
2019-05-16T21:58:21.873Z,31.50
2019-05-16T22:00:57.152Z,31.62
2019-05-16T22:03:27.109Z,31.69
2019-05-16T22:05:58.612Z,31.81
2019-05-16T22:08:30.368Z,31.94
2019-05-16T22:11:00.999Z,31.99
2019-05-16T22:13:31.203Z,32.07
2019-05-16T22:16:05.637Z,32.13
2019-05-16T22:18:38.593Z,32.20
2019-05-16T22:21:10.534Z,32.37
2019-05-16T22:23:40.680Z,32.47
2019-05-16T22:26:11.370Z,32.50
2019-05-16T22:28:41.507Z,32.67
2019-05-16T22:31:11.961Z,32.93
2019-05-16T22:33:42.773Z,32.91
2019-05-16T22:36:13.337Z,32.88
2019-05-16T22:38:43.389Z,33.11
2019-05-16T22:41:13.672Z,33.23
2019-05-16T22:43:46.554Z,33.36
2019-05-16T22:46:18.937Z,33.41
2019-05-16T22:48:49.452Z,33.52
2019-05-16T22:51:19.565Z,33.63
2019-05-16T22:53:58.794Z,33.78
2019-05-16T22:56:28.593Z,33.90
2019-05-16T22:58:58.875Z,34.04
2019-05-16T23:01:33.781Z,34.18
2019-05-16T23:04:03.658Z,34.29
2019-05-16T23:06:36.229Z,34.28
2019-05-16T23:09:07.156Z,34.31
2019-05-16T23:11:37.591Z,34.47
2019-05-16T23:14:08.446Z,34.56
2019-05-16T23:16:39.095Z,34.43
2019-05-16T23:19:09.022Z,34.54
2019-05-16T23:21:38.579Z,34.63
2019-05-16T23:24:09.121Z,34.87
2019-05-16T23:26:39.064Z,34.87
2019-05-16T23:29:09.000Z,34.91
2019-05-16T23:31:38.922Z,35.08
2019-05-16T23:34:09.392Z,35.17
2019-05-16T23:36:39.116Z,35.52
2019-05-16T23:39:09.584Z,35.72
2019-05-16T23:41:39.959Z,35.87
2019-05-16T23:44:11.673Z,36.13
2019-05-16T23:46:42.298Z,36.34
2019-05-16T23:49:12.947Z,36.42
2019-05-16T23:51:43.806Z,36.58
2019-05-16T23:54:13.937Z,36.70
2019-05-16T23:56:46.602Z,36.75
2019-05-16T23:59:17.187Z,36.94
